sensor_id;sensor_type;location;lat;lon;timestamp;P1;durP1;ratioP1;P2;durP2;ratioP2
16179;SDS011;8196;49.428;10.906;2023-08-12T00:02:00;3.60;;;3.08;;
16179;SDS011;8196;49.428;10.906;2023-08-12T00:04:27;4.25;;;3.10;;
16179;SDS011;8196;49.428;10.906;2023-08-12T00:06:54;3.47;;;2.60;;
16179;SDS011;8196;49.428;10.906;2023-08-12T00:09:21;3.45;;;2.95;;
16179;SDS011;8196;49.428;10.906;2023-08-12T00:11:48;3.55;;;3.25;;
16179;SDS011;8196;49.428;10.906;2023-08-12T00:14:16;3.42;;;2.97;;
16179;SDS011;8196;49.428;10.906;2023-08-12T00:16:42;3.85;;;3.25;;
16179;SDS011;8196;49.428;10.906;2023-08-12T00:19:10;4.45;;;3.20;;
16179;SDS011;8196;49.428;10.906;2023-08-12T00:21:37;6.68;;;3.05;;
16179;SDS011;8196;49.428;10.906;2023-08-12T00:24:04;3.35;;;2.85;;
16179;SDS011;8196;49.428;10.906;2023-08-12T00:26:32;4.50;;;2.80;;
16179;SDS011;8196;49.428;10.906;2023-08-12T00:28:58;4.28;;;3.20;;
16179;SDS011;8196;49.428;10.906;2023-08-12T00:31:26;3.88;;;2.67;;
16179;SDS011;8196;49.428;10.906;2023-08-12T00:33:53;4.22;;;2.97;;
16179;SDS011;8196;49.428;10.906;2023-08-12T00:36:20;3.65;;;3.20;;
16179;SDS011;8196;49.428;10.906;2023-08-12T00:38:47;3.67;;;2.70;;
16179;SDS011;8196;49.428;10.906;2023-08-12T00:41:15;3.95;;;3.13;;
16179;SDS011;8196;49.428;10.906;2023-08-12T00:43:45;5.60;;;3.15;;
16179;SDS011;8196;49.428;10.906;2023-08-12T00:46:12;4.13;;;3.50;;
16179;SDS011;8196;49.428;10.906;2023-08-12T00:48:40;4.18;;;3.55;;
16179;SDS011;8196;49.428;10.906;2023-08-12T00:51:07;5.25;;;3.35;;
16179;SDS011;8196;49.428;10.906;2023-08-12T00:53:35;4.07;;;2.92;;
16179;SDS011;8196;49.428;10.906;2023-08-12T00:56:03;4.18;;;3.78;;
16179;SDS011;8196;49.428;10.906;2023-08-12T00:58:30;6.57;;;3.72;;
16179;SDS011;8196;49.428;10.906;2023-08-12T01:00:57;4.93;;;3.80;;
16179;SDS011;8196;49.428;10.906;2023-08-12T01:03:25;4.28;;;3.60;;
16179;SDS011;8196;49.428;10.906;2023-08-12T01:05:52;4.35;;;3.95;;
16179;SDS011;8196;49.428;10.906;2023-08-12T01:08:19;4.72;;;3.95;;
16179;SDS011;8196;49.428;10.906;2023-08-12T01:10:49;5.28;;;4.05;;
16179;SDS011;8196;49.428;10.906;2023-08-12T01:13:21;5.90;;;4.18;;
16179;SDS011;8196;49.428;10.906;2023-08-12T01:15:51;6.90;;;4.50;;
16179;SDS011;8196;49.428;10.906;2023-08-12T01:18:22;5.28;;;4.28;;
16179;SDS011;8196;49.428;10.906;2023-08-12T01:20:50;4.65;;;4.25;;
16179;SDS011;8196;49.428;10.906;2023-08-12T01:23:17;7.10;;;4.75;;
16179;SDS011;8196;49.428;10.906;2023-08-12T01:25:46;4.50;;;4.10;;
16179;SDS011;8196;49.428;10.906;2023-08-12T01:28:13;5.00;;;4.47;;
16179;SDS011;8196;49.428;10.906;2023-08-12T01:30:46;5.35;;;3.90;;
16179;SDS011;8196;49.428;10.906;2023-08-12T01:33:19;5.80;;;4.03;;
16179;SDS011;8196;49.428;10.906;2023-08-12T01:35:51;4.35;;;3.95;;
16179;SDS011;8196;49.428;10.906;2023-08-12T01:38:21;6.28;;;4.45;;
16179;SDS011;8196;49.428;10.906;2023-08-12T01:40:49;4.68;;;4.20;;
16179;SDS011;8196;49.428;10.906;2023-08-12T01:43:17;4.40;;;4.00;;
16179;SDS011;8196;49.428;10.906;2023-08-12T01:45:45;4.88;;;4.40;;
16179;SDS011;8196;49.428;10.906;2023-08-12T01:50:40;4.65;;;4.20;;
16179;SDS011;8196;49.428;10.906;2023-08-12T01:53:13;5.28;;;3.55;;
16179;SDS011;8196;49.428;10.906;2023-08-12T01:55:42;3.75;;;3.45;;
16179;SDS011;8196;49.428;10.906;2023-08-12T01:58:10;3.83;;;3.53;;
16179;SDS011;8196;49.428;10.906;2023-08-12T02:00:37;5.15;;;3.83;;
16179;SDS011;8196;49.428;10.906;2023-08-12T02:03:04;4.13;;;3.72;;
16179;SDS011;8196;49.428;10.906;2023-08-12T02:05:32;7.78;;;3.70;;
16179;SDS011;8196;49.428;10.906;2023-08-12T02:08:00;3.65;;;3.35;;
16179;SDS011;8196;49.428;10.906;2023-08-12T02:10:27;4.75;;;4.13;;
16179;SDS011;8196;49.428;10.906;2023-08-12T02:12:54;5.40;;;4.30;;
16179;SDS011;8196;49.428;10.906;2023-08-12T02:15:21;4.72;;;4.22;;
16179;SDS011;8196;49.428;10.906;2023-08-12T02:17:48;4.65;;;4.22;;
16179;SDS011;8196;49.428;10.906;2023-08-12T02:20:16;4.45;;;3.95;;
16179;SDS011;8196;49.428;10.906;2023-08-12T02:22:44;4.88;;;3.45;;
16179;SDS011;8196;49.428;10.906;2023-08-12T02:25:11;4.28;;;3.88;;
16179;SDS011;8196;49.428;10.906;2023-08-12T02:27:39;5.50;;;3.63;;
16179;SDS011;8196;49.428;10.906;2023-08-12T02:30:06;3.80;;;3.30;;
16179;SDS011;8196;49.428;10.906;2023-08-12T02:32:33;4.43;;;3.85;;
16179;SDS011;8196;49.428;10.906;2023-08-12T02:35:01;8.23;;;3.95;;
16179;SDS011;8196;49.428;10.906;2023-08-12T02:37:28;6.78;;;3.72;;
16179;SDS011;8196;49.428;10.906;2023-08-12T02:39:55;4.32;;;3.72;;
16179;SDS011;8196;49.428;10.906;2023-08-12T02:42:22;4.68;;;4.18;;
16179;SDS011;8196;49.428;10.906;2023-08-12T02:44:49;4.13;;;3.72;;
16179;SDS011;8196;49.428;10.906;2023-08-12T02:47:16;7.03;;;4.18;;
16179;SDS011;8196;49.428;10.906;2023-08-12T02:49:43;4.57;;;4.17;;
16179;SDS011;8196;49.428;10.906;2023-08-12T02:52:11;5.15;;;4.00;;
16179;SDS011;8196;49.428;10.906;2023-08-12T02:54:38;4.03;;;3.65;;
16179;SDS011;8196;49.428;10.906;2023-08-12T02:57:05;4.47;;;3.83;;
16179;SDS011;8196;49.428;10.906;2023-08-12T02:59:32;5.18;;;3.88;;
16179;SDS011;8196;49.428;10.906;2023-08-12T03:01:59;4.57;;;3.70;;
16179;SDS011;8196;49.428;10.906;2023-08-12T03:04:26;3.70;;;3.30;;
16179;SDS011;8196;49.428;10.906;2023-08-12T03:06:53;4.32;;;3.75;;
16179;SDS011;8196;49.428;10.906;2023-08-12T03:09:21;4.53;;;3.80;;
16179;SDS011;8196;49.428;10.906;2023-08-12T03:11:48;7.18;;;3.83;;
16179;SDS011;8196;49.428;10.906;2023-08-12T03:14:16;3.85;;;3.50;;
16179;SDS011;8196;49.428;10.906;2023-08-12T03:16:43;4.10;;;3.67;;
16179;SDS011;8196;49.428;10.906;2023-08-12T03:19:10;4.32;;;3.92;;
16179;SDS011;8196;49.428;10.906;2023-08-12T03:21:37;3.97;;;3.65;;
16179;SDS011;8196;49.428;10.906;2023-08-12T03:24:04;5.05;;;3.70;;
16179;SDS011;8196;49.428;10.906;2023-08-12T03:26:32;4.10;;;3.70;;
16179;SDS011;8196;49.428;10.906;2023-08-12T03:28:59;6.25;;;4.00;;
16179;SDS011;8196;49.428;10.906;2023-08-12T03:31:26;6.57;;;4.00;;
16179;SDS011;8196;49.428;10.906;2023-08-12T03:33:53;4.10;;;3.70;;
16179;SDS011;8196;49.428;10.906;2023-08-12T03:36:20;5.22;;;3.88;;
16179;SDS011;8196;49.428;10.906;2023-08-12T03:38:48;3.78;;;3.40;;
16179;SDS011;8196;49.428;10.906;2023-08-12T03:41:15;3.42;;;3.08;;
16179;SDS011;8196;49.428;10.906;2023-08-12T03:43:42;4.55;;;3.53;;
16179;SDS011;8196;49.428;10.906;2023-08-12T03:46:10;4.15;;;3.22;;
16179;SDS011;8196;49.428;10.906;2023-08-12T03:48:37;4.43;;;3.90;;
16179;SDS011;8196;49.428;10.906;2023-08-12T03:51:04;4.40;;;4.00;;
16179;SDS011;8196;49.428;10.906;2023-08-12T03:53:32;5.97;;;3.40;;
16179;SDS011;8196;49.428;10.906;2023-08-12T03:55:59;3.97;;;3.63;;
16179;SDS011;8196;49.428;10.906;2023-08-12T03:58:26;4.10;;;3.67;;
16179;SDS011;8196;49.428;10.906;2023-08-12T04:00:53;4.65;;;3.80;;
16179;SDS011;8196;49.428;10.906;2023-08-12T04:03:20;4.65;;;3.40;;
16179;SDS011;8196;49.428;10.906;2023-08-12T04:05:48;4.00;;;3.47;;
16179;SDS011;8196;49.428;10.906;2023-08-12T04:08:16;4.00;;;3.60;;
16179;SDS011;8196;49.428;10.906;2023-08-12T04:10:44;8.43;;;3.67;;
16179;SDS011;8196;49.428;10.906;2023-08-12T04:13:12;7.15;;;3.42;;
16179;SDS011;8196;49.428;10.906;2023-08-12T04:15:39;5.38;;;3.72;;
16179;SDS011;8196;49.428;10.906;2023-08-12T04:18:08;5.22;;;3.83;;
16179;SDS011;8196;49.428;10.906;2023-08-12T04:20:36;4.82;;;3.85;;
16179;SDS011;8196;49.428;10.906;2023-08-12T04:23:04;4.72;;;4.03;;
16179;SDS011;8196;49.428;10.906;2023-08-12T04:25:32;3.97;;;3.67;;
16179;SDS011;8196;49.428;10.906;2023-08-12T04:27:59;4.43;;;4.03;;
16179;SDS011;8196;49.428;10.906;2023-08-12T04:30:27;4.72;;;4.03;;
16179;SDS011;8196;49.428;10.906;2023-08-12T04:32:54;5.57;;;4.97;;
16179;SDS011;8196;49.428;10.906;2023-08-12T04:35:21;5.03;;;4.30;;
16179;SDS011;8196;49.428;10.906;2023-08-12T04:37:48;5.88;;;4.30;;
16179;SDS011;8196;49.428;10.906;2023-08-12T04:40:15;6.70;;;3.30;;
16179;SDS011;8196;49.428;10.906;2023-08-12T04:42:43;4.63;;;4.22;;
16179;SDS011;8196;49.428;10.906;2023-08-12T04:45:10;4.45;;;3.72;;
16179;SDS011;8196;49.428;10.906;2023-08-12T04:47:37;4.55;;;4.00;;
16179;SDS011;8196;49.428;10.906;2023-08-12T04:50:04;3.78;;;3.47;;
16179;SDS011;8196;49.428;10.906;2023-08-12T04:52:33;4.82;;;4.35;;
16179;SDS011;8196;49.428;10.906;2023-08-12T04:55:00;6.10;;;4.43;;
16179;SDS011;8196;49.428;10.906;2023-08-12T04:57:29;4.20;;;3.80;;
16179;SDS011;8196;49.428;10.906;2023-08-12T04:59:56;4.88;;;4.40;;
16179;SDS011;8196;49.428;10.906;2023-08-12T05:02:23;5.30;;;4.57;;
16179;SDS011;8196;49.428;10.906;2023-08-12T05:04:51;5.20;;;4.28;;
16179;SDS011;8196;49.428;10.906;2023-08-12T05:07:18;5.82;;;5.07;;
16179;SDS011;8196;49.428;10.906;2023-08-12T05:09:46;6.38;;;4.53;;
16179;SDS011;8196;49.428;10.906;2023-08-12T05:12:13;5.50;;;4.63;;
16179;SDS011;8196;49.428;10.906;2023-08-12T05:14:40;5.28;;;3.97;;
16179;SDS011;8196;49.428;10.906;2023-08-12T05:17:07;4.88;;;4.47;;
16179;SDS011;8196;49.428;10.906;2023-08-12T05:19:34;6.65;;;4.28;;
16179;SDS011;8196;49.428;10.906;2023-08-12T05:22:02;5.53;;;3.90;;
16179;SDS011;8196;49.428;10.906;2023-08-12T05:24:29;5.03;;;4.30;;
16179;SDS011;8196;49.428;10.906;2023-08-12T05:26:56;5.50;;;4.20;;
16179;SDS011;8196;49.428;10.906;2023-08-12T05:29:23;5.85;;;3.90;;
16179;SDS011;8196;49.428;10.906;2023-08-12T05:31:50;4.70;;;3.92;;
16179;SDS011;8196;49.428;10.906;2023-08-12T05:34:20;4.50;;;3.53;;
16179;SDS011;8196;49.428;10.906;2023-08-12T05:36:49;4.72;;;3.47;;
16179;SDS011;8196;49.428;10.906;2023-08-12T05:39:16;3.60;;;3.10;;
16179;SDS011;8196;49.428;10.906;2023-08-12T05:41:44;3.60;;;3.30;;
16179;SDS011;8196;49.428;10.906;2023-08-12T05:44:12;3.60;;;3.13;;
16179;SDS011;8196;49.428;10.906;2023-08-12T05:46:39;4.53;;;3.13;;
16179;SDS011;8196;49.428;10.906;2023-08-12T05:49:07;3.83;;;3.22;;
16179;SDS011;8196;49.428;10.906;2023-08-12T05:51:34;3.15;;;2.85;;
16179;SDS011;8196;49.428;10.906;2023-08-12T05:54:01;4.45;;;3.13;;
16179;SDS011;8196;49.428;10.906;2023-08-12T05:56:28;3.43;;;2.93;;
16179;SDS011;8196;49.428;10.906;2023-08-12T05:58:55;3.85;;;3.20;;
16179;SDS011;8196;49.428;10.906;2023-08-12T06:01:22;3.27;;;2.97;;
16179;SDS011;8196;49.428;10.906;2023-08-12T06:03:50;3.30;;;3.00;;
16179;SDS011;8196;49.428;10.906;2023-08-12T06:06:17;3.25;;;2.95;;
16179;SDS011;8196;49.428;10.906;2023-08-12T06:08:44;3.80;;;2.80;;
16179;SDS011;8196;49.428;10.906;2023-08-12T06:11:11;3.95;;;2.92;;
16179;SDS011;8196;49.428;10.906;2023-08-12T06:13:39;3.20;;;2.90;;
16179;SDS011;8196;49.428;10.906;2023-08-12T06:16:06;4.88;;;3.00;;
16179;SDS011;8196;49.428;10.906;2023-08-12T06:18:33;4.82;;;3.25;;
16179;SDS011;8196;49.428;10.906;2023-08-12T06:21:00;3.65;;;3.10;;
16179;SDS011;8196;49.428;10.906;2023-08-12T06:23:27;3.65;;;2.85;;
16179;SDS011;8196;49.428;10.906;2023-08-12T06:25:56;2.80;;;2.60;;
16179;SDS011;8196;49.428;10.906;2023-08-12T06:28:23;3.00;;;2.70;;
16179;SDS011;8196;49.428;10.906;2023-08-12T06:30:50;4.78;;;2.90;;
16179;SDS011;8196;49.428;10.906;2023-08-12T06:33:17;3.95;;;2.70;;
16179;SDS011;8196;49.428;10.906;2023-08-12T06:35:45;2.95;;;2.70;;
16179;SDS011;8196;49.428;10.906;2023-08-12T06:38:16;3.50;;;2.67;;
16179;SDS011;8196;49.428;10.906;2023-08-12T06:40:43;2.83;;;2.63;;
16179;SDS011;8196;49.428;10.906;2023-08-12T06:43:10;3.22;;;2.75;;
16179;SDS011;8196;49.428;10.906;2023-08-12T06:45:37;3.33;;;2.88;;
16179;SDS011;8196;49.428;10.906;2023-08-12T06:48:05;3.80;;;2.88;;
16179;SDS011;8196;49.428;10.906;2023-08-12T06:50:32;2.65;;;2.40;;
16179;SDS011;8196;49.428;10.906;2023-08-12T06:55:26;3.00;;;2.53;;
16179;SDS011;8196;49.428;10.906;2023-08-12T06:57:53;3.17;;;2.75;;
16179;SDS011;8196;49.428;10.906;2023-08-12T07:00:21;4.10;;;2.78;;
16179;SDS011;8196;49.428;10.906;2023-08-12T07:02:48;4.30;;;2.93;;
16179;SDS011;8196;49.428;10.906;2023-08-12T07:05:15;3.13;;;2.78;;
16179;SDS011;8196;49.428;10.906;2023-08-12T07:07:42;3.30;;;2.70;;
16179;SDS011;8196;49.428;10.906;2023-08-12T07:10:10;3.25;;;2.95;;
16179;SDS011;8196;49.428;10.906;2023-08-12T07:12:37;3.42;;;3.13;;
16179;SDS011;8196;49.428;10.906;2023-08-12T07:15:04;3.17;;;2.85;;
16179;SDS011;8196;49.428;10.906;2023-08-12T07:17:32;3.13;;;2.70;;
16179;SDS011;8196;49.428;10.906;2023-08-12T07:19:59;3.00;;;2.70;;
16179;SDS011;8196;49.428;10.906;2023-08-12T07:22:26;2.60;;;2.40;;
16179;SDS011;8196;49.428;10.906;2023-08-12T07:24:53;2.50;;;2.30;;
16179;SDS011;8196;49.428;10.906;2023-08-12T07:27:21;3.20;;;2.90;;
16179;SDS011;8196;49.428;10.906;2023-08-12T07:29:48;3.03;;;2.73;;
16179;SDS011;8196;49.428;10.906;2023-08-12T07:32:16;2.58;;;2.38;;
16179;SDS011;8196;49.428;10.906;2023-08-12T07:34:43;2.57;;;2.30;;
16179;SDS011;8196;49.428;10.906;2023-08-12T07:37:10;3.25;;;2.40;;
16179;SDS011;8196;49.428;10.906;2023-08-12T07:39:37;2.60;;;2.30;;
16179;SDS011;8196;49.428;10.906;2023-08-12T07:42:04;2.63;;;2.40;;
16179;SDS011;8196;49.428;10.906;2023-08-12T07:44:32;2.70;;;2.22;;
16179;SDS011;8196;49.428;10.906;2023-08-12T07:46:59;3.13;;;2.83;;
16179;SDS011;8196;49.428;10.906;2023-08-12T07:49:26;2.60;;;2.40;;
16179;SDS011;8196;49.428;10.906;2023-08-12T07:51:53;2.37;;;2.17;;
16179;SDS011;8196;49.428;10.906;2023-08-12T07:54:21;3.42;;;2.45;;
16179;SDS011;8196;49.428;10.906;2023-08-12T07:56:48;2.50;;;2.30;;
16179;SDS011;8196;49.428;10.906;2023-08-12T07:59:16;2.40;;;2.20;;
16179;SDS011;8196;49.428;10.906;2023-08-12T08:01:43;2.40;;;2.20;;
16179;SDS011;8196;49.428;10.906;2023-08-12T08:04:10;4.40;;;2.75;;
16179;SDS011;8196;49.428;10.906;2023-08-12T08:06:38;2.92;;;2.40;;
16179;SDS011;8196;49.428;10.906;2023-08-12T08:09:05;4.18;;;2.60;;
16179;SDS011;8196;49.428;10.906;2023-08-12T08:11:32;2.83;;;2.53;;
16179;SDS011;8196;49.428;10.906;2023-08-12T08:14:00;3.13;;;2.80;;
16179;SDS011;8196;49.428;10.906;2023-08-12T08:16:27;3.03;;;2.58;;
16179;SDS011;8196;49.428;10.906;2023-08-12T08:18:55;3.45;;;2.53;;
16179;SDS011;8196;49.428;10.906;2023-08-12T08:21:25;3.15;;;2.47;;
16179;SDS011;8196;49.428;10.906;2023-08-12T08:23:52;2.77;;;2.57;;
16179;SDS011;8196;49.428;10.906;2023-08-12T08:26:19;3.55;;;2.40;;
16179;SDS011;8196;49.428;10.906;2023-08-12T08:28:47;3.10;;;2.50;;
16179;SDS011;8196;49.428;10.906;2023-08-12T08:31:14;2.53;;;2.33;;
16179;SDS011;8196;49.428;10.906;2023-08-12T08:33:41;2.83;;;2.63;;
16179;SDS011;8196;49.428;10.906;2023-08-12T08:36:10;2.55;;;2.30;;
16179;SDS011;8196;49.428;10.906;2023-08-12T08:38:37;3.17;;;2.70;;
16179;SDS011;8196;49.428;10.906;2023-08-12T08:41:05;4.10;;;2.50;;
16179;SDS011;8196;49.428;10.906;2023-08-12T08:43:33;2.78;;;2.58;;
16179;SDS011;8196;49.428;10.906;2023-08-12T08:46:02;2.60;;;2.40;;
16179;SDS011;8196;49.428;10.906;2023-08-12T08:48:29;3.10;;;2.80;;
16179;SDS011;8196;49.428;10.906;2023-08-12T08:50:56;2.80;;;2.60;;
16179;SDS011;8196;49.428;10.906;2023-08-12T08:53:24;3.37;;;2.80;;
16179;SDS011;8196;49.428;10.906;2023-08-12T08:55:51;2.60;;;2.40;;
16179;SDS011;8196;49.428;10.906;2023-08-12T08:58:26;3.42;;;2.50;;
16179;SDS011;8196;49.428;10.906;2023-08-12T09:00:54;3.00;;;2.70;;
16179;SDS011;8196;49.428;10.906;2023-08-12T09:03:21;4.35;;;2.50;;
16179;SDS011;8196;49.428;10.906;2023-08-12T09:05:49;2.85;;;2.30;;
16179;SDS011;8196;49.428;10.906;2023-08-12T09:08:17;5.50;;;2.67;;
16179;SDS011;8196;49.428;10.906;2023-08-12T09:10:45;3.10;;;2.80;;
16179;SDS011;8196;49.428;10.906;2023-08-12T09:13:13;2.55;;;2.35;;
16179;SDS011;8196;49.428;10.906;2023-08-12T09:15:41;2.88;;;2.60;;
16179;SDS011;8196;49.428;10.906;2023-08-12T09:18:09;2.97;;;2.40;;
16179;SDS011;8196;49.428;10.906;2023-08-12T09:20:36;3.60;;;2.70;;
16179;SDS011;8196;49.428;10.906;2023-08-12T09:23:03;3.00;;;2.70;;
16179;SDS011;8196;49.428;10.906;2023-08-12T09:25:31;3.08;;;2.78;;
16179;SDS011;8196;49.428;10.906;2023-08-12T09:27:58;5.07;;;2.65;;
16179;SDS011;8196;49.428;10.906;2023-08-12T09:30:29;5.35;;;2.88;;
16179;SDS011;8196;49.428;10.906;2023-08-12T09:32:58;2.90;;;2.70;;
16179;SDS011;8196;49.428;10.906;2023-08-12T09:38:03;3.85;;;2.90;;
16179;SDS011;8196;49.428;10.906;2023-08-12T09:40:31;2.83;;;2.60;;
16179;SDS011;8196;49.428;10.906;2023-08-12T09:42:59;3.03;;;2.53;;
16179;SDS011;8196;49.428;10.906;2023-08-12T09:45:26;3.22;;;2.90;;
16179;SDS011;8196;49.428;10.906;2023-08-12T09:47:54;2.75;;;2.55;;
16179;SDS011;8196;49.428;10.906;2023-08-12T09:50:22;2.92;;;2.72;;
16179;SDS011;8196;49.428;10.906;2023-08-12T09:52:49;3.05;;;2.75;;
16179;SDS011;8196;49.428;10.906;2023-08-12T09:55:17;2.80;;;2.40;;
16179;SDS011;8196;49.428;10.906;2023-08-12T09:57:47;5.37;;;2.83;;
16179;SDS011;8196;49.428;10.906;2023-08-12T10:00:16;3.75;;;2.78;;
16179;SDS011;8196;49.428;10.906;2023-08-12T10:02:44;3.15;;;2.90;;
16179;SDS011;8196;49.428;10.906;2023-08-12T10:05:14;3.65;;;2.67;;
16179;SDS011;8196;49.428;10.906;2023-08-12T10:07:43;2.77;;;2.57;;
16179;SDS011;8196;49.428;10.906;2023-08-12T10:10:12;2.90;;;2.70;;
16179;SDS011;8196;49.428;10.906;2023-08-12T10:12:39;3.20;;;2.92;;
16179;SDS011;8196;49.428;10.906;2023-08-12T10:15:06;4.57;;;2.70;;
16179;SDS011;8196;49.428;10.906;2023-08-12T10:17:34;2.75;;;2.55;;
16179;SDS011;8196;49.428;10.906;2023-08-12T10:20:11;5.23;;;3.03;;
16179;SDS011;8196;49.428;10.906;2023-08-12T10:22:39;3.20;;;2.90;;
16179;SDS011;8196;49.428;10.906;2023-08-12T10:25:07;2.97;;;2.72;;
16179;SDS011;8196;49.428;10.906;2023-08-12T10:27:35;2.85;;;2.65;;
16179;SDS011;8196;49.428;10.906;2023-08-12T10:30:04;3.03;;;2.75;;
16179;SDS011;8196;49.428;10.906;2023-08-12T10:32:31;4.40;;;2.90;;
16179;SDS011;8196;49.428;10.906;2023-08-12T10:34:59;3.08;;;2.78;;
16179;SDS011;8196;49.428;10.906;2023-08-12T10:37:26;2.83;;;2.60;;
16179;SDS011;8196;49.428;10.906;2023-08-12T10:39:58;3.10;;;2.90;;
16179;SDS011;8196;49.428;10.906;2023-08-12T10:42:41;2.92;;;2.72;;
16179;SDS011;8196;49.428;10.906;2023-08-12T10:45:09;3.00;;;2.57;;
16179;SDS011;8196;49.428;10.906;2023-08-12T10:47:39;2.90;;;2.70;;
16179;SDS011;8196;49.428;10.906;2023-08-12T10:50:15;3.05;;;2.75;;
16179;SDS011;8196;49.428;10.906;2023-08-12T10:52:43;3.00;;;2.70;;
16179;SDS011;8196;49.428;10.906;2023-08-12T10:55:27;3.40;;;2.90;;
16179;SDS011;8196;49.428;10.906;2023-08-12T10:57:55;3.15;;;2.85;;
16179;SDS011;8196;49.428;10.906;2023-08-12T11:00:25;2.85;;;2.63;;
16179;SDS011;8196;49.428;10.906;2023-08-12T11:02:54;3.10;;;2.80;;
16179;SDS011;8196;49.428;10.906;2023-08-12T11:05:23;3.40;;;3.10;;
16179;SDS011;8196;49.428;10.906;2023-08-12T11:08:05;3.17;;;2.88;;
16179;SDS011;8196;49.428;10.906;2023-08-12T11:10:33;3.28;;;2.97;;
16179;SDS011;8196;49.428;10.906;2023-08-12T11:13:01;3.33;;;3.10;;
16179;SDS011;8196;49.428;10.906;2023-08-12T11:15:34;3.05;;;2.85;;
16179;SDS011;8196;49.428;10.906;2023-08-12T11:18:04;3.42;;;3.13;;
16179;SDS011;8196;49.428;10.906;2023-08-12T11:20:32;3.45;;;3.17;;
16179;SDS011;8196;49.428;10.906;2023-08-12T11:23:00;3.00;;;2.80;;
16179;SDS011;8196;49.428;10.906;2023-08-12T11:25:28;3.20;;;2.90;;
16179;SDS011;8196;49.428;10.906;2023-08-12T11:27:56;3.25;;;3.05;;
16179;SDS011;8196;49.428;10.906;2023-08-12T11:30:23;4.05;;;3.53;;
16179;SDS011;8196;49.428;10.906;2023-08-12T11:32:51;3.07;;;2.87;;
16179;SDS011;8196;49.428;10.906;2023-08-12T11:35:22;3.35;;;3.10;;
16179;SDS011;8196;49.428;10.906;2023-08-12T11:37:50;3.13;;;2.83;;
16179;SDS011;8196;49.428;10.906;2023-08-12T11:40:19;3.92;;;3.63;;
16179;SDS011;8196;49.428;10.906;2023-08-12T11:42:47;3.50;;;3.20;;
16179;SDS011;8196;49.428;10.906;2023-08-12T11:45:16;4.25;;;3.20;;
16179;SDS011;8196;49.428;10.906;2023-08-12T11:47:43;3.72;;;3.42;;
16179;SDS011;8196;49.428;10.906;2023-08-12T11:50:12;3.47;;;3.23;;
16179;SDS011;8196;49.428;10.906;2023-08-12T11:52:40;3.53;;;3.22;;
16179;SDS011;8196;49.428;10.906;2023-08-12T11:55:07;4.17;;;3.70;;
16179;SDS011;8196;49.428;10.906;2023-08-12T11:57:35;3.97;;;3.67;;
16179;SDS011;8196;49.428;10.906;2023-08-12T12:00:04;3.77;;;3.57;;
16179;SDS011;8196;49.428;10.906;2023-08-12T12:02:40;3.93;;;3.63;;
16179;SDS011;8196;49.428;10.906;2023-08-12T12:05:08;4.72;;;3.60;;
16179;SDS011;8196;49.428;10.906;2023-08-12T12:07:37;3.90;;;3.67;;
16179;SDS011;8196;49.428;10.906;2023-08-12T12:10:05;3.80;;;3.50;;
16179;SDS011;8196;49.428;10.906;2023-08-12T12:12:33;3.60;;;3.30;;
16179;SDS011;8196;49.428;10.906;2023-08-12T12:15:02;4.00;;;3.70;;
16179;SDS011;8196;49.428;10.906;2023-08-12T12:17:29;3.97;;;3.67;;
16179;SDS011;8196;49.428;10.906;2023-08-12T12:19:57;3.58;;;3.38;;
16179;SDS011;8196;49.428;10.906;2023-08-12T12:22:27;3.90;;;3.60;;
16179;SDS011;8196;49.428;10.906;2023-08-12T12:24:57;3.60;;;3.40;;
16179;SDS011;8196;49.428;10.906;2023-08-12T12:27:27;3.70;;;3.40;;
16179;SDS011;8196;49.428;10.906;2023-08-12T12:29:54;3.85;;;3.55;;
16179;SDS011;8196;49.428;10.906;2023-08-12T12:32:21;4.72;;;3.90;;
16179;SDS011;8196;49.428;10.906;2023-08-12T12:34:49;4.03;;;3.33;;
16179;SDS011;8196;49.428;10.906;2023-08-12T12:37:17;3.95;;;3.65;;
16179;SDS011;8196;49.428;10.906;2023-08-12T12:39:44;3.30;;;3.10;;
16179;SDS011;8196;49.428;10.906;2023-08-12T12:42:12;3.80;;;3.50;;
16179;SDS011;8196;49.428;10.906;2023-08-12T12:44:40;3.25;;;2.90;;
16179;SDS011;8196;49.428;10.906;2023-08-12T12:47:07;3.17;;;2.70;;
16179;SDS011;8196;49.428;10.906;2023-08-12T12:49:38;2.80;;;2.60;;
16179;SDS011;8196;49.428;10.906;2023-08-12T12:52:07;2.90;;;2.70;;
16179;SDS011;8196;49.428;10.906;2023-08-12T12:54:35;4.20;;;2.80;;
16179;SDS011;8196;49.428;10.906;2023-08-12T12:57:02;3.05;;;2.85;;
16179;SDS011;8196;49.428;10.906;2023-08-12T12:59:30;2.65;;;2.45;;
16179;SDS011;8196;49.428;10.906;2023-08-12T13:01:58;4.03;;;2.40;;
16179;SDS011;8196;49.428;10.906;2023-08-12T13:04:25;3.15;;;2.30;;
16179;SDS011;8196;49.428;10.906;2023-08-12T13:06:52;2.50;;;2.30;;
16179;SDS011;8196;49.428;10.906;2023-08-12T13:09:19;3.42;;;2.45;;
16179;SDS011;8196;49.428;10.906;2023-08-12T13:11:46;3.22;;;2.50;;
16179;SDS011;8196;49.428;10.906;2023-08-12T13:14:13;2.70;;;2.50;;
16179;SDS011;8196;49.428;10.906;2023-08-12T13:16:45;2.90;;;2.30;;
16179;SDS011;8196;49.428;10.906;2023-08-12T13:19:12;3.13;;;2.72;;
16179;SDS011;8196;49.428;10.906;2023-08-12T13:21:39;3.05;;;2.55;;
16179;SDS011;8196;49.428;10.906;2023-08-12T13:24:06;3.00;;;2.53;;
16179;SDS011;8196;49.428;10.906;2023-08-12T13:26:33;2.80;;;2.50;;
16179;SDS011;8196;49.428;10.906;2023-08-12T13:29:01;2.47;;;2.27;;
16179;SDS011;8196;49.428;10.906;2023-08-12T13:31:28;2.85;;;2.65;;
16179;SDS011;8196;49.428;10.906;2023-08-12T13:33:55;3.55;;;2.40;;
16179;SDS011;8196;49.428;10.906;2023-08-12T13:36:22;3.22;;;2.70;;
16179;SDS011;8196;49.428;10.906;2023-08-12T13:38:50;2.97;;;2.67;;
16179;SDS011;8196;49.428;10.906;2023-08-12T13:41:17;3.35;;;2.60;;
16179;SDS011;8196;49.428;10.906;2023-08-12T13:43:44;3.10;;;2.50;;
16179;SDS011;8196;49.428;10.906;2023-08-12T13:46:11;2.72;;;2.53;;
16179;SDS011;8196;49.428;10.906;2023-08-12T13:48:39;4.68;;;2.72;;
16179;SDS011;8196;49.428;10.906;2023-08-12T13:51:08;2.65;;;2.38;;
16179;SDS011;8196;49.428;10.906;2023-08-12T13:53:36;3.03;;;2.78;;
16179;SDS011;8196;49.428;10.906;2023-08-12T13:56:04;2.90;;;2.70;;
16179;SDS011;8196;49.428;10.906;2023-08-12T13:58:31;2.67;;;2.47;;
16179;SDS011;8196;49.428;10.906;2023-08-12T14:00:58;3.38;;;3.08;;
16179;SDS011;8196;49.428;10.906;2023-08-12T14:03:25;4.38;;;2.70;;
16179;SDS011;8196;49.428;10.906;2023-08-12T14:05:52;2.80;;;2.33;;
16179;SDS011;8196;49.428;10.906;2023-08-12T14:08:20;2.00;;;1.77;;
16179;SDS011;8196;49.428;10.906;2023-08-12T14:10:47;3.15;;;2.08;;
16179;SDS011;8196;49.428;10.906;2023-08-12T14:13:16;2.10;;;1.90;;
16179;SDS011;8196;49.428;10.906;2023-08-12T14:15:43;1.85;;;1.75;;
16179;SDS011;8196;49.428;10.906;2023-08-12T14:18:10;4.00;;;1.90;;
16179;SDS011;8196;49.428;10.906;2023-08-12T14:20:37;2.00;;;1.80;;
16179;SDS011;8196;49.428;10.906;2023-08-12T14:23:05;2.90;;;1.88;;
16179;SDS011;8196;49.428;10.906;2023-08-12T14:25:32;2.75;;;1.55;;
16179;SDS011;8196;49.428;10.906;2023-08-12T14:30:26;1.75;;;1.50;;
16179;SDS011;8196;49.428;10.906;2023-08-12T14:32:53;2.27;;;1.30;;
16179;SDS011;8196;49.428;10.906;2023-08-12T14:35:21;2.60;;;1.60;;
16179;SDS011;8196;49.428;10.906;2023-08-12T14:37:48;1.65;;;1.52;;
16179;SDS011;8196;49.428;10.906;2023-08-12T14:40:15;3.33;;;1.70;;
16179;SDS011;8196;49.428;10.906;2023-08-12T14:42:42;2.08;;;1.70;;
16179;SDS011;8196;49.428;10.906;2023-08-12T14:45:10;3.33;;;1.70;;
16179;SDS011;8196;49.428;10.906;2023-08-12T14:47:37;4.97;;;1.88;;
16179;SDS011;8196;49.428;10.906;2023-08-12T14:50:04;3.55;;;1.80;;
16179;SDS011;8196;49.428;10.906;2023-08-12T14:52:31;4.40;;;2.07;;
16179;SDS011;8196;49.428;10.906;2023-08-12T14:54:58;2.17;;;1.80;;
16179;SDS011;8196;49.428;10.906;2023-08-12T14:57:25;2.78;;;1.73;;
16179;SDS011;8196;49.428;10.906;2023-08-12T14:59:53;2.97;;;1.70;;
16179;SDS011;8196;49.428;10.906;2023-08-12T15:02:20;2.30;;;1.60;;